Time;durP1;ratioP1;P1;durP2;ratioP2;P2;SDS_P1;SDS_P2;PMS_P1;PMS_P2;Temp;Humidity;BMP_temperature;BMP_pressure;BME280_temperature;BME280_humidity;BME280_pressure;Samples;Min_cycle;Max_cycle;Signal;HPM_P1;HPM_P2
2022/05/27 00:09:07;;;;;;;11.07;3.85;;;;;;;16.15;84.97;101351.38;20930657;28;20049;-65
2022/05/27 00:19:29;;;;;;;17.10;4.13;;;;;;;16.08;87.51;101334.38;20927446;28;20044;-66
2022/05/27 00:29:50;;;;;;;21.92;4.70;;;;;;;16.01;87.46;101325.31;20916380;28;20763;-66
2022/05/27 00:40:24;;;;;;;13.88;4.40;;;;;;;15.95;86.55;101322.34;20919030;28;20045;-66
2022/05/27 00:50:49;;;;;;;11.30;3.75;;;;;;;15.86;88.88;101336.22;20925935;28;20044;-65
2022/05/27 01:01:13;;;;;;;14.43;3.40;;;;;;;15.74;86.88;101318.75;20922947;28;20048;-65
2022/05/27 01:11:52;;;;;;;16.40;3.85;;;;;;;15.80;90.00;101334.06;20913742;28;20540;-65
2022/05/27 01:22:32;;;;;;;12.55;3.15;;;;;;;15.75;86.55;101344.94;20922242;28;20389;-65
2022/05/27 01:33:04;;;;;;;16.90;2.70;;;;;;;15.63;84.76;101347.66;20927660;28;20059;-66
2022/05/27 01:43:41;;;;;;;21.13;2.70;;;;;;;15.52;84.09;101373.94;20932514;28;20381;-65
2022/05/27 01:54:12;;;;;;;9.95;1.80;;;;;;;15.33;81.61;101370.19;20934164;28;20047;-65
2022/05/27 02:04:46;;;;;;;15.90;2.42;;;;;;;15.22;81.91;101378.84;20922852;28;20393;-66
2022/05/27 02:15:07;;;;;;;15.13;2.13;;;;;;;15.10;80.08;101381.53;20935596;28;20707;-65
2022/05/27 02:25:34;;;;;;;13.00;2.28;;;;;;;14.98;79.73;101385.94;20927800;28;20045;-66
2022/05/27 02:35:59;;;;;;;10.77;2.13;;;;;;;14.86;79.33;101392.06;20941345;28;20060;-66
2022/05/27 02:46:25;;;;;;;11.60;1.90;;;;;;;14.75;80.53;101401.69;20951299;28;20044;-66
2022/05/27 02:56:54;;;;;;;13.90;1.73;;;;;;;14.64;79.84;101407.69;20953966;28;20132;-66
2022/05/27 03:07:38;;;;;;;14.27;2.17;;;;;;;14.63;80.81;101406.03;20941901;28;20049;-65
2022/05/27 03:18:21;;;;;;;10.68;1.88;;;;;;;14.54;78.80;101409.31;20925772;28;20049;-65
2022/05/27 03:28:48;;;;;;;10.13;1.75;;;;;;;14.40;77.46;101397.28;20926816;28;20059;-65
2022/05/27 03:39:27;;;;;;;8.35;1.60;;;;;;;14.34;76.79;101397.72;20940380;28;20481;-65
2022/05/27 03:49:49;;;;;;;11.77;1.73;;;;;;;14.29;75.93;101399.81;20917646;28;20040;-65
2022/05/27 04:00:13;;;;;;;6.13;1.30;;;;;;;14.31;76.08;101413.66;20925802;28;20049;-65
2022/05/27 04:10:35;;;;;;;12.95;2.42;;;;;;;14.23;76.52;101416.81;20935258;28;20299;-65
2022/05/27 04:20:56;;;;;;;12.32;2.60;;;;;;;14.19;77.33;101430.25;20924989;28;20143;-65
2022/05/27 04:31:18;;;;;;;16.38;2.95;;;;;;;14.21;78.30;101431.00;20918012;28;20076;-66
2022/05/27 04:41:40;;;;;;;11.95;2.75;;;;;;;14.24;77.26;101422.91;20916216;28;20132;-65
2022/05/27 04:52:02;;;;;;;;;;;;;;;14.34;78.67;101423.94;20904553;28;20052;-65
2022/05/27 05:02:24;;;;;;;14.77;2.38;;;;;;;14.43;77.19;101434.63;20933808;28;19930;-66
2022/05/27 05:12:46;;;;;;;15.13;2.42;;;;;;;14.43;77.54;101439.03;20951010;28;20052;-67
2022/05/27 05:23:07;;;;;;;17.30;2.85;;;;;;;14.50;74.82;101452.44;20926943;28;20515;-65
2022/05/27 05:33:29;;;;;;;13.75;2.08;;;;;;;14.59;74.27;101457.03;20937867;28;20040;-66
2022/05/27 05:43:51;;;;;;;15.85;2.28;;;;;;;14.66;73.67;101458.28;20929904;28;20045;-67
2022/05/27 05:54:12;;;;;;;10.77;2.20;;;;;;;14.77;73.09;101465.41;20915291;28;20512;-65
2022/05/27 06:04:34;;;;;;;19.40;1.70;;;;;;;14.74;72.37;101460.38;20941856;28;20523;-66
2022/05/27 06:15:02;;;;;;;12.32;2.50;;;;;;;14.78;71.56;101477.56;20948919;28;20056;-66
2022/05/27 06:25:25;;;;;;;14.25;2.60;;;;;;;14.91;71.03;101468.69;20980489;28;20044;-65
2022/05/27 06:35:46;;;;;;;15.55;2.22;;;;;;;15.06;70.25;101470.22;20944237;28;20083;-66
2022/05/27 06:46:08;;;;;;;14.88;2.10;;;;;;;15.14;68.74;101470.47;20949067;28;20051;-66
2022/05/27 06:56:29;;;;;;;10.95;2.20;;;;;;;15.13;65.64;101478.47;20939068;28;20067;-66
2022/05/27 07:06:51;;;;;;;13.73;2.47;;;;;;;15.09;67.11;101482.28;20930105;28;20056;-67
2022/05/27 07:17:12;;;;;;;13.65;2.30;;;;;;;15.24;66.27;101481.16;20939251;28;20584;-66
2022/05/27 07:27:34;;;;;;;9.45;2.10;;;;;;;15.38;66.57;101474.00;20961843;28;20155;-69
2022/05/27 07:37:56;;;;;;;;;;;;;;;15.33;61.57;101485.78;20979059;28;20102;-67
2022/05/27 07:48:17;;;;;;;14.40;2.40;;;;;;;15.61;65.80;101478.34;20963693;28;19928;-71
2022/05/27 07:58:39;;;;;;;17.17;2.10;;;;;;;15.62;63.62;101472.16;20968326;28;20045;-68
2022/05/27 08:09:02;;;;;;;11.80;2.20;;;;;;;15.77;65.05;101471.00;20953914;28;20044;-68
2022/05/27 08:19:23;;;;;;;;;;;;;;;15.50;58.47;101479.16;20931769;28;20633;-68
2022/05/27 08:29:45;;;;;;;12.43;2.38;;;;;;;15.74;61.46;101502.78;20937684;28;19920;-68
2022/05/27 08:40:48;;;;;;;19.42;2.40;;;;;;;16.01;57.44;101491.00;20921766;28;20056;-69
2022/05/27 08:51:21;;;;;;;10.35;2.10;;;;;;;16.08;57.02;101501.91;20931238;28;20048;-68
2022/05/27 09:01:44;;;;;;;14.40;2.40;;;;;;;15.99;61.07;101526.28;20932724;28;20045;-69
2022/05/27 09:12:12;;;;;;;12.38;2.15;;;;;;;15.62;55.07;101516.84;20933177;28;20037;-69
2022/05/27 09:22:55;;;;;;;13.50;2.38;;;;;;;16.12;56.35;101513.88;20915482;28;20116;-68
2022/05/27 09:33:21;;;;;;;13.80;2.33;;;;;;;15.94;58.79;101528.41;20917472;28;20131;-68
2022/05/27 09:43:52;;;;;;;21.90;2.47;;;;;;;16.08;62.38;101530.84;20914568;28;20627;-68
2022/05/27 09:54:35;;;;;;;10.93;2.10;;;;;;;16.25;55.92;101520.69;20914668;28;20050;-68
2022/05/27 10:05:05;;;;;;;12.25;2.00;;;;;;;16.46;58.54;101535.69;20916406;28;20046;-68
2022/05/27 10:15:33;;;;;;;10.38;1.65;;;;;;;16.44;58.26;101532.38;20912912;28;20049;-68
2022/05/27 10:25:56;;;;;;;10.02;2.20;;;;;;;16.56;60.58;101539.31;20926307;28;20041;-69
2022/05/27 10:36:29;;;;;;;12.23;2.03;;;;;;;16.82;61.82;101529.34;20915000;28;20076;-67
2022/05/27 10:46:56;;;;;;;8.73;1.95;;;;;;;17.32;53.58;101527.00;20918084;28;20047;-67
2022/05/27 11:08:30;;;;;;;18.23;2.17;;;;;;;16.93;54.96;101545.97;20948038;28;20120;-68
2022/05/27 11:19:27;;;;;;;15.73;2.42;;;;;;;17.48;52.90;101551.16;20935331;28;20052;-67
2022/05/27 11:30:08;;;;;;;11.57;1.90;;;;;;;17.50;55.34;101562.41;20918598;28;20048;-64
2022/05/27 11:40:59;;;;;;;11.00;1.87;;;;;;;17.58;52.24;101571.38;20918704;28;20048;-64
2022/05/27 11:51:45;;;;;;;10.07;2.00;;;;;;;17.13;51.64;101574.22;20925063;28;20326;-63
2022/05/27 12:02:34;;;;;;;11.43;2.30;;;;;;;17.47;55.90;101575.84;20939688;28;20317;-63
2022/05/27 12:13:07;;;;;;;10.75;1.95;;;;;;;16.95;62.63;101586.22;20921544;28;20098;-62
2022/05/27 12:23:30;;;;;;;14.20;2.30;;;;;;;16.82;58.30;101584.66;20938580;28;20052;-65
2022/05/27 12:33:52;;;;;;;13.30;2.30;;;;;;;16.90;59.19;101567.28;20922301;28;20045;-65
2022/05/27 12:44:19;;;;;;;12.43;2.22;;;;;;;16.97;55.75;101573.75;20934669;28;20413;-64
2022/05/27 12:54:45;;;;;;;13.07;2.00;;;;;;;17.17;59.13;101570.41;20940089;28;20048;-64
2022/05/27 13:05:07;;;;;;;15.07;2.33;;;;;;;16.99;58.85;101597.34;20949834;28;20047;-64
2022/05/27 13:15:43;;;;;;;9.80;2.40;;;;;;;16.94;59.02;101574.00;20917313;28;20059;-62
2022/05/27 13:26:14;;;;;;;11.93;2.15;;;;;;;16.83;57.50;101565.25;20944664;28;20053;-63
2022/05/27 13:36:54;;;;;;;11.90;2.13;;;;;;;16.97;54.92;101579.03;20932502;28;20052;-64
2022/05/27 13:47:17;;;;;;;13.40;2.22;;;;;;;16.88;59.57;101582.38;20957273;28;20596;-64
2022/05/27 13:57:42;;;;;;;14.85;2.20;;;;;;;16.81;56.93;101581.19;20925850;28;20049;-64
2022/05/27 14:08:04;;;;;;;12.45;2.13;;;;;;;16.50;61.67;101589.78;20922773;28;20315;-63
2022/05/27 14:18:32;;;;;;;16.98;2.33;;;;;;;16.71;56.92;101582.88;20932280;28;20041;-65
2022/05/27 14:28:57;;;;;;;12.65;2.15;;;;;;;16.64;59.13;101580.84;20936586;28;20075;-64
2022/05/27 14:39:21;;;;;;;21.40;2.42;;;;;;;16.93;60.32;101593.41;20932323;28;20040;-65
2022/05/27 14:50:01;;;;;;;11.00;1.77;;;;;;;17.06;54.53;101593.28;20938371;28;20037;-64
2022/05/27 15:00:22;;;;;;;10.95;2.05;;;;;;;16.62;56.22;101586.19;20935805;28;20044;-64
2022/05/27 15:11:02;;;;;;;12.98;1.95;;;;;;;15.61;66.61;101601.91;20929729;28;20049;-65
2022/05/27 15:21:36;;;;;;;23.38;5.00;;;;;;;15.04;72.73;101595.53;20945211;28;20050;-64
2022/05/27 15:42:47;;;;;;;11.60;1.70;;;;;;;14.69;75.17;101612.94;20928021;28;20052;-64
2022/05/27 15:53:10;;;;;;;12.60;1.75;;;;;;;14.48;73.29;101613.56;20930828;28;20041;-63
2022/05/27 16:03:32;;;;;;;9.00;1.60;;;;;;;14.66;71.35;101610.50;20918554;28;20496;-63
2022/05/27 16:13:54;;;;;;;10.90;2.05;;;;;;;14.84;71.75;101588.25;20921542;28;20128;-65
2022/05/27 16:24:16;;;;;;;14.20;2.42;;;;;;;14.73;71.70;101580.25;20904560;28;20529;-64
2022/05/27 16:34:38;;;;;;;19.65;2.60;;;;;;;14.32;76.33;101630.41;20918253;28;20044;-64
2022/05/27 16:44:59;;;;;;;;;;;;;;;14.24;87.08;101603.88;20937274;28;20045;-63
2022/05/27 16:55:22;;;;;;;13.00;2.50;;;;;;;14.46;75.34;101600.53;20939479;28;19924;-64
2022/05/27 17:05:44;;;;;;;19.75;3.03;;;;;;;14.16;78.41;101603.53;20929823;28;20473;-64
2022/05/27 17:16:05;;;;;;;;;;;;;;;13.96;81.43;101617.13;20914441;28;20076;-64
2022/05/27 17:26:28;;;;;;;14.27;2.37;;;;;;;13.91;75.59;101608.69;20914806;28;19921;-65
2022/05/27 17:36:51;;;;;;;15.30;1.90;;;;;;;14.18;73.37;101617.38;20903146;28;20047;-63
2022/05/27 17:57:52;;;;;;;18.50;2.00;;;;;;;14.03;71.32;101602.66;20934994;28;20628;-64
2022/05/27 18:08:16;;;;;;;16.58;2.28;;;;;;;13.99;71.71;101591.53;20940123;28;20052;-65
2022/05/27 18:18:38;;;;;;;12.65;2.22;;;;;;;14.12;71.49;101588.91;20935927;28;20049;-66
2022/05/27 18:29:02;;;;;;;17.73;2.22;;;;;;;14.04;70.88;101589.44;20910104;28;20045;-66
2022/05/27 18:39:23;;;;;;;;;;;;;;;13.97;73.48;101587.34;20915345;28;20071;-66
2022/05/27 18:49:45;;;;;;;16.33;2.27;;;;;;;13.96;70.33;101580.41;20916742;28;20712;-66
2022/05/27 19:00:10;;;;;;;12.93;2.00;;;;;;;13.94;70.46;101571.81;20933426;28;20055;-65
2022/05/27 19:10:31;;;;;;;11.10;2.15;;;;;;;13.93;71.42;101572.75;20916056;28;20045;-65
2022/05/27 19:31:34;;;;;;;13.97;2.33;;;;;;;13.62;74.52;101573.06;20937405;28;20037;-66
2022/05/27 19:41:55;;;;;;;17.63;2.35;;;;;;;13.48;75.77;101567.91;20918191;28;20049;-65
2022/05/27 19:52:17;;;;;;;;;;;;;;;13.39;77.75;101570.25;20959660;28;20112;-66
2022/05/27 20:13:18;;;;;;;13.48;2.47;;;;;;;13.30;75.93;101600.50;20931268;28;20048;-65
2022/05/27 20:23:41;;;;;;;10.67;1.90;;;;;;;13.24;75.06;101589.56;20915245;28;20048;-66
2022/05/27 20:34:03;;;;;;;12.60;2.30;;;;;;;13.14;76.37;101584.06;20918551;28;20041;-69
2022/05/27 20:44:25;;;;;;;;;;;;;;;13.10;76.77;101582.56;20915048;28;20044;-68
2022/05/27 20:54:47;;;;;;;;;;;;;;;13.02;76.25;101579.59;20929486;28;19967;-65
2022/05/27 21:05:09;;;;;;;;;;;;;;;12.95;76.00;101567.81;20948688;28;19928;-65
2022/05/27 21:15:34;;;;;;;;;;;;;;;12.91;76.36;101553.28;20927506;28;19979;-67
2022/05/27 21:25:56;;;;;;;;;;;;;;;12.87;77.90;101549.13;20918905;28;19924;-66
2022/05/27 21:36:18;;;;;;;;;;;;;;;12.81;77.66;101539.03;20931853;28;19924;-65
2022/05/27 21:46:40;;;;;;;;;;;;;;;12.81;77.21;101544.25;20919524;28;20043;-66
2022/05/27 21:57:02;;;;;;;8.10;1.23;;;;;;;12.80;76.69;101541.75;20928852;28;20089;-64
2022/05/27 22:07:24;;;;;;;8.82;1.58;;;;;;;12.71;76.54;101537.94;20930600;28;20125;-65
2022/05/27 22:17:47;;;;;;;12.55;1.88;;;;;;;12.72;77.42;101539.63;20923139;28;20045;-66
2022/05/27 22:28:10;;;;;;;13.43;1.92;;;;;;;12.61;77.09;101534.22;20911380;28;20041;-64
2022/05/27 22:38:32;;;;;;;12.02;1.50;;;;;;;12.53;78.08;101535.63;20915770;28;20123;-66
2022/05/27 22:48:53;;;;;;;16.40;1.98;;;;;;;12.51;78.71;101525.25;20914759;28;20044;-65
2022/05/27 22:59:15;;;;;;;12.45;1.65;;;;;;;12.49;81.40;101521.03;20918570;28;20062;-64
2022/05/27 23:09:37;;;;;;;8.98;1.30;;;;;;;12.09;82.37;101510.47;20948062;28;20044;-64
2022/05/27 23:19:59;;;;;;;;;;;;;;;11.61;82.67;101497.69;20922247;28;20040;-66
2022/05/27 23:30:22;;;;;;;;;;;;;;;11.56;85.36;101490.13;20918694;28;19927;-66
2022/05/27 23:40:44;;;;;;;2.75;0.70;;;;;;;11.53;80.22;101479.00;20942795;28;19921;-65
2022/05/27 23:51:09;;;;;;;9.05;1.38;;;;;;;11.62;82.28;101468.88;20910767;28;20745;-67
